sensor_id;sensor_type;location;lat;lon;timestamp;P1;durP1;ratioP1;P2;durP2;ratioP2
74963;SDS011;63521;51.900;4.748;2022-11-15T00:01:14;8.80;;;4.18;;
74963;SDS011;63521;51.900;4.748;2022-11-15T00:03:41;9.60;;;4.28;;
74963;SDS011;63521;51.900;4.748;2022-11-15T00:06:08;11.10;;;4.47;;
74963;SDS011;63521;51.900;4.748;2022-11-15T00:08:33;9.05;;;4.28;;
74963;SDS011;63521;51.900;4.748;2022-11-15T00:11:00;9.50;;;4.38;;
74963;SDS011;63521;51.900;4.748;2022-11-15T00:13:27;10.77;;;4.30;;
74963;SDS011;63521;51.900;4.748;2022-11-15T00:15:56;10.15;;;4.55;;
74963;SDS011;63521;51.900;4.748;2022-11-15T00:18:22;8.90;;;4.00;;
74963;SDS011;63521;51.900;4.748;2022-11-15T00:20:47;9.93;;;4.68;;
74963;SDS011;63521;51.900;4.748;2022-11-15T00:23:13;10.07;;;4.53;;
74963;SDS011;63521;51.900;4.748;2022-11-15T00:25:38;10.50;;;4.90;;
74963;SDS011;63521;51.900;4.748;2022-11-15T00:28:03;10.02;;;4.55;;
74963;SDS011;63521;51.900;4.748;2022-11-15T00:30:30;8.18;;;4.05;;
74963;SDS011;63521;51.900;4.748;2022-11-15T00:33:01;11.35;;;4.70;;
74963;SDS011;63521;51.900;4.748;2022-11-15T00:35:33;10.05;;;4.70;;
74963;SDS011;63521;51.900;4.748;2022-11-15T00:38:00;9.70;;;3.80;;
74963;SDS011;63521;51.900;4.748;2022-11-15T00:40:26;10.63;;;4.57;;
74963;SDS011;63521;51.900;4.748;2022-11-15T00:42:52;10.60;;;4.50;;
74963;SDS011;63521;51.900;4.748;2022-11-15T00:45:17;9.50;;;4.75;;
74963;SDS011;63521;51.900;4.748;2022-11-15T00:47:46;11.02;;;4.50;;
74963;SDS011;63521;51.900;4.748;2022-11-15T00:50:11;10.73;;;4.22;;
74963;SDS011;63521;51.900;4.748;2022-11-15T00:52:37;10.45;;;4.72;;
74963;SDS011;63521;51.900;4.748;2022-11-15T00:55:03;12.85;;;4.97;;
74963;SDS011;63521;51.900;4.748;2022-11-15T00:57:28;11.25;;;4.75;;
74963;SDS011;63521;51.900;4.748;2022-11-15T00:59:54;11.73;;;4.82;;
74963;SDS011;63521;51.900;4.748;2022-11-15T01:02:19;9.98;;;4.50;;
74963;SDS011;63521;51.900;4.748;2022-11-15T01:04:44;9.07;;;4.35;;
74963;SDS011;63521;51.900;4.748;2022-11-15T01:07:10;14.90;;;5.03;;
74963;SDS011;63521;51.900;4.748;2022-11-15T01:09:35;9.50;;;4.45;;
74963;SDS011;63521;51.900;4.748;2022-11-15T01:12:01;13.98;;;5.15;;
74963;SDS011;63521;51.900;4.748;2022-11-15T01:14:26;10.02;;;4.53;;
74963;SDS011;63521;51.900;4.748;2022-11-15T01:16:51;8.95;;;4.80;;
74963;SDS011;63521;51.900;4.748;2022-11-15T01:19:17;11.32;;;4.53;;
74963;SDS011;63521;51.900;4.748;2022-11-15T01:21:42;13.07;;;4.60;;
74963;SDS011;63521;51.900;4.748;2022-11-15T01:24:08;11.25;;;5.00;;
74963;SDS011;63521;51.900;4.748;2022-11-15T01:26:37;11.63;;;4.72;;
74963;SDS011;63521;51.900;4.748;2022-11-15T01:29:02;12.95;;;5.38;;
74963;SDS011;63521;51.900;4.748;2022-11-15T01:31:28;12.35;;;4.95;;
74963;SDS011;63521;51.900;4.748;2022-11-15T01:33:53;11.25;;;5.10;;
74963;SDS011;63521;51.900;4.748;2022-11-15T01:36:20;9.77;;;4.75;;
74963;SDS011;63521;51.900;4.748;2022-11-15T01:38:47;11.40;;;4.97;;
74963;SDS011;63521;51.900;4.748;2022-11-15T01:41:20;12.15;;;4.97;;
74963;SDS011;63521;51.900;4.748;2022-11-15T01:43:55;9.88;;;4.47;;
74963;SDS011;63521;51.900;4.748;2022-11-15T01:46:41;11.60;;;4.75;;
74963;SDS011;63521;51.900;4.748;2022-11-15T01:49:17;10.52;;;4.53;;
74963;SDS011;63521;51.900;4.748;2022-11-15T01:51:45;12.52;;;4.63;;
74963;SDS011;63521;51.900;4.748;2022-11-15T01:54:13;11.80;;;5.05;;
74963;SDS011;63521;51.900;4.748;2022-11-15T01:56:43;11.70;;;5.13;;
74963;SDS011;63521;51.900;4.748;2022-11-15T01:59:11;10.15;;;4.88;;
74963;SDS011;63521;51.900;4.748;2022-11-15T02:01:36;10.75;;;4.63;;
74963;SDS011;63521;51.900;4.748;2022-11-15T02:04:04;9.13;;;4.32;;
74963;SDS011;63521;51.900;4.748;2022-11-15T02:06:33;7.65;;;3.72;;
74963;SDS011;63521;51.900;4.748;2022-11-15T02:08:59;9.30;;;4.55;;
74963;SDS011;63521;51.900;4.748;2022-11-15T02:11:25;11.00;;;4.47;;
74963;SDS011;63521;51.900;4.748;2022-11-15T02:13:51;9.15;;;4.60;;
74963;SDS011;63521;51.900;4.748;2022-11-15T02:25:12;9.27;;;3.70;;
74963;SDS011;63521;51.900;4.748;2022-11-15T02:35:51;8.35;;;4.47;;
74963;SDS011;63521;51.900;4.748;2022-11-15T02:38:24;10.18;;;4.05;;
74963;SDS011;63521;51.900;4.748;2022-11-15T02:41:09;9.90;;;4.60;;
74963;SDS011;63521;51.900;4.748;2022-11-15T02:43:41;8.93;;;4.45;;
74963;SDS011;63521;51.900;4.748;2022-11-15T02:46:29;9.63;;;4.85;;
74963;SDS011;63521;51.900;4.748;2022-11-15T02:49:16;10.50;;;5.07;;
74963;SDS011;63521;51.900;4.748;2022-11-15T02:51:43;9.65;;;4.70;;
74963;SDS011;63521;51.900;4.748;2022-11-15T02:54:14;8.18;;;4.20;;
74963;SDS011;63521;51.900;4.748;2022-11-15T02:56:43;8.60;;;4.40;;
74963;SDS011;63521;51.900;4.748;2022-11-15T03:02:27;8.95;;;4.35;;
74963;SDS011;63521;51.900;4.748;2022-11-15T03:05:17;9.65;;;4.75;;
74963;SDS011;63521;51.900;4.748;2022-11-15T03:12:59;9.52;;;4.32;;
74963;SDS011;63521;51.900;4.748;2022-11-15T03:15:43;10.57;;;4.85;;
74963;SDS011;63521;51.900;4.748;2022-11-15T03:18:37;8.70;;;4.10;;
74963;SDS011;63521;51.900;4.748;2022-11-15T03:21:02;9.52;;;4.47;;
74963;SDS011;63521;51.900;4.748;2022-11-15T03:23:30;9.25;;;4.38;;
74963;SDS011;63521;51.900;4.748;2022-11-15T03:25:56;8.77;;;4.78;;
74963;SDS011;63521;51.900;4.748;2022-11-15T03:28:24;8.18;;;3.92;;
74963;SDS011;63521;51.900;4.748;2022-11-15T03:30:53;9.73;;;4.72;;
74963;SDS011;63521;51.900;4.748;2022-11-15T03:33:19;7.63;;;4.22;;
74963;SDS011;63521;51.900;4.748;2022-11-15T03:35:46;8.95;;;4.10;;
74963;SDS011;63521;51.900;4.748;2022-11-15T03:41:01;8.98;;;4.35;;
74963;SDS011;63521;51.900;4.748;2022-11-15T03:43:39;8.60;;;4.00;;
74963;SDS011;63521;51.900;4.748;2022-11-15T03:46:16;8.68;;;4.15;;
74963;SDS011;63521;51.900;4.748;2022-11-15T03:49:17;9.40;;;4.45;;
74963;SDS011;63521;51.900;4.748;2022-11-15T03:51:46;8.93;;;4.28;;
74963;SDS011;63521;51.900;4.748;2022-11-15T03:54:12;7.68;;;4.32;;
74963;SDS011;63521;51.900;4.748;2022-11-15T03:56:37;7.22;;;4.35;;
74963;SDS011;63521;51.900;4.748;2022-11-15T03:59:03;10.30;;;3.97;;
74963;SDS011;63521;51.900;4.748;2022-11-15T04:01:28;10.10;;;4.60;;
74963;SDS011;63521;51.900;4.748;2022-11-15T04:03:54;11.60;;;4.68;;
74963;SDS011;63521;51.900;4.748;2022-11-15T04:06:19;9.05;;;4.70;;
74963;SDS011;63521;51.900;4.748;2022-11-15T04:08:44;7.90;;;3.97;;
74963;SDS011;63521;51.900;4.748;2022-11-15T04:11:10;8.98;;;4.07;;
74963;SDS011;63521;51.900;4.748;2022-11-15T04:13:35;8.50;;;4.05;;
74963;SDS011;63521;51.900;4.748;2022-11-15T04:16:00;7.82;;;3.92;;
74963;SDS011;63521;51.900;4.748;2022-11-15T04:18:26;7.60;;;3.80;;
74963;SDS011;63521;51.900;4.748;2022-11-15T04:20:51;7.68;;;4.35;;
74963;SDS011;63521;51.900;4.748;2022-11-15T04:23:35;9.27;;;4.00;;
74963;SDS011;63521;51.900;4.748;2022-11-15T04:26:20;9.30;;;4.25;;
74963;SDS011;63521;51.900;4.748;2022-11-15T04:28:47;7.88;;;4.25;;
74963;SDS011;63521;51.900;4.748;2022-11-15T04:31:31;6.50;;;3.80;;
74963;SDS011;63521;51.900;4.748;2022-11-15T04:33:57;7.43;;;3.90;;
74963;SDS011;63521;51.900;4.748;2022-11-15T04:36:22;5.82;;;3.47;;
74963;SDS011;63521;51.900;4.748;2022-11-15T04:39:07;8.70;;;4.22;;
74963;SDS011;63521;51.900;4.748;2022-11-15T04:41:32;7.70;;;4.07;;
74963;SDS011;63521;51.900;4.748;2022-11-15T04:43:57;8.27;;;4.20;;
74963;SDS011;63521;51.900;4.748;2022-11-15T04:46:23;6.70;;;3.92;;
74963;SDS011;63521;51.900;4.748;2022-11-15T04:48:49;6.13;;;4.10;;
74963;SDS011;63521;51.900;4.748;2022-11-15T04:51:15;10.02;;;4.55;;
74963;SDS011;63521;51.900;4.748;2022-11-15T04:53:41;6.90;;;4.22;;
74963;SDS011;63521;51.900;4.748;2022-11-15T04:56:06;5.40;;;3.15;;
74963;SDS011;63521;51.900;4.748;2022-11-15T04:58:31;6.72;;;4.00;;
74963;SDS011;63521;51.900;4.748;2022-11-15T05:00:57;8.95;;;4.40;;
74963;SDS011;63521;51.900;4.748;2022-11-15T05:03:22;6.10;;;3.63;;
74963;SDS011;63521;51.900;4.748;2022-11-15T05:06:06;7.30;;;3.75;;
74963;SDS011;63521;51.900;4.748;2022-11-15T05:08:32;6.55;;;3.88;;
74963;SDS011;63521;51.900;4.748;2022-11-15T05:10:57;7.07;;;3.88;;
74963;SDS011;63521;51.900;4.748;2022-11-15T05:13:22;7.97;;;3.70;;
74963;SDS011;63521;51.900;4.748;2022-11-15T05:15:48;6.78;;;3.97;;
74963;SDS011;63521;51.900;4.748;2022-11-15T05:18:13;6.75;;;3.50;;
74963;SDS011;63521;51.900;4.748;2022-11-15T05:20:39;5.80;;;3.38;;
74963;SDS011;63521;51.900;4.748;2022-11-15T05:25:58;6.70;;;3.63;;
74963;SDS011;63521;51.900;4.748;2022-11-15T05:28:24;7.00;;;3.85;;
74963;SDS011;63521;51.900;4.748;2022-11-15T05:30:49;6.55;;;3.63;;
74963;SDS011;63521;51.900;4.748;2022-11-15T05:33:15;6.68;;;3.30;;
74963;SDS011;63521;51.900;4.748;2022-11-15T05:35:41;5.38;;;3.40;;
74963;SDS011;63521;51.900;4.748;2022-11-15T05:38:07;7.38;;;3.72;;
74963;SDS011;63521;51.900;4.748;2022-11-15T05:40:33;6.60;;;3.17;;
74963;SDS011;63521;51.900;4.748;2022-11-15T05:54:20;5.63;;;2.80;;
74963;SDS011;63521;51.900;4.748;2022-11-15T06:00:41;5.43;;;3.15;;
74963;SDS011;63521;51.900;4.748;2022-11-15T06:03:08;4.82;;;2.97;;
74963;SDS011;63521;51.900;4.748;2022-11-15T06:05:34;4.93;;;2.92;;
74963;SDS011;63521;51.900;4.748;2022-11-15T06:07:59;6.53;;;3.20;;
74963;SDS011;63521;51.900;4.748;2022-11-15T06:10:25;5.00;;;2.90;;
74963;SDS011;63521;51.900;4.748;2022-11-15T06:13:08;5.45;;;3.25;;
74963;SDS011;63521;51.900;4.748;2022-11-15T06:15:34;5.28;;;3.17;;
74963;SDS011;63521;51.900;4.748;2022-11-15T06:17:59;5.93;;;3.03;;
74963;SDS011;63521;51.900;4.748;2022-11-15T06:20:26;5.00;;;3.15;;
74963;SDS011;63521;51.900;4.748;2022-11-15T06:22:58;6.22;;;3.00;;
74963;SDS011;63521;51.900;4.748;2022-11-15T06:25:25;5.43;;;2.90;;
74963;SDS011;63521;51.900;4.748;2022-11-15T06:27:51;4.63;;;2.70;;
74963;SDS011;63521;51.900;4.748;2022-11-15T06:30:17;6.60;;;2.83;;
74963;SDS011;63521;51.900;4.748;2022-11-15T06:32:42;5.05;;;3.17;;
74963;SDS011;63521;51.900;4.748;2022-11-15T06:35:08;5.68;;;3.05;;
74963;SDS011;63521;51.900;4.748;2022-11-15T06:37:33;4.38;;;2.47;;
74963;SDS011;63521;51.900;4.748;2022-11-15T07:02:26;3.72;;;2.40;;
74963;SDS011;63521;51.900;4.748;2022-11-15T07:21:30;3.83;;;2.40;;
74963;SDS011;63521;51.900;4.748;2022-11-15T07:24:17;2.78;;;2.45;;
74963;SDS011;63521;51.900;4.748;2022-11-15T07:26:43;3.95;;;2.50;;
74963;SDS011;63521;51.900;4.748;2022-11-15T07:29:08;3.75;;;2.50;;
74963;SDS011;63521;51.900;4.748;2022-11-15T07:31:34;3.92;;;2.42;;
74963;SDS011;63521;51.900;4.748;2022-11-15T07:33:59;4.00;;;2.35;;
74963;SDS011;63521;51.900;4.748;2022-11-15T07:36:25;3.83;;;2.15;;
74963;SDS011;63521;51.900;4.748;2022-11-15T07:38:53;3.63;;;2.15;;
74963;SDS011;63521;51.900;4.748;2022-11-15T07:41:18;4.40;;;2.13;;
74963;SDS011;63521;51.900;4.748;2022-11-15T07:43:44;3.58;;;2.53;;
74963;SDS011;63521;51.900;4.748;2022-11-15T07:46:09;4.30;;;2.47;;
74963;SDS011;63521;51.900;4.748;2022-11-15T07:48:35;3.67;;;2.22;;
74963;SDS011;63521;51.900;4.748;2022-11-15T07:51:01;3.45;;;2.08;;
74963;SDS011;63521;51.900;4.748;2022-11-15T07:53:27;4.30;;;2.45;;
74963;SDS011;63521;51.900;4.748;2022-11-15T07:55:53;4.93;;;2.50;;
74963;SDS011;63521;51.900;4.748;2022-11-15T08:11:23;3.35;;;1.92;;
74963;SDS011;63521;51.900;4.748;2022-11-15T09:45:48;3.03;;;1.73;;
74963;SDS011;63521;51.900;4.748;2022-11-15T09:49:07;2.50;;;1.77;;
74963;SDS011;63521;51.900;4.748;2022-11-15T09:52:16;2.70;;;1.83;;
74963;SDS011;63521;51.900;4.748;2022-11-15T09:54:46;2.80;;;1.67;;
74963;SDS011;63521;51.900;4.748;2022-11-15T09:57:16;2.97;;;1.80;;
74963;SDS011;63521;51.900;4.748;2022-11-15T10:05:22;4.05;;;1.63;;
74963;SDS011;63521;51.900;4.748;2022-11-15T10:10:43;3.30;;;1.70;;
74963;SDS011;63521;51.900;4.748;2022-11-15T10:18:49;2.97;;;1.30;;
74963;SDS011;63521;51.900;4.748;2022-11-15T10:21:30;2.83;;;1.70;;
74963;SDS011;63521;51.900;4.748;2022-11-15T10:26:38;2.83;;;1.70;;
74963;SDS011;63521;51.900;4.748;2022-11-15T10:29:04;1.98;;;1.40;;
74963;SDS011;63521;51.900;4.748;2022-11-15T10:31:29;2.80;;;1.40;;
74963;SDS011;63521;51.900;4.748;2022-11-15T10:34:12;1.77;;;1.35;;
74963;SDS011;63521;51.900;4.748;2022-11-15T10:36:43;3.10;;;1.50;;
74963;SDS011;63521;51.900;4.748;2022-11-15T10:39:29;1.95;;;1.50;;
74963;SDS011;63521;51.900;4.748;2022-11-15T10:41:55;2.75;;;1.27;;
74963;SDS011;63521;51.900;4.748;2022-11-15T10:44:24;2.67;;;1.60;;
74963;SDS011;63521;51.900;4.748;2022-11-15T10:49:28;1.52;;;1.20;;
74963;SDS011;63521;51.900;4.748;2022-11-15T10:51:55;1.70;;;1.60;;
74963;SDS011;63521;51.900;4.748;2022-11-15T10:54:34;2.95;;;1.45;;
74963;SDS011;63521;51.900;4.748;2022-11-15T10:57:04;2.63;;;1.40;;
74963;SDS011;63521;51.900;4.748;2022-11-15T10:59:32;1.90;;;1.40;;
74963;SDS011;63521;51.900;4.748;2022-11-15T11:02:01;1.50;;;1.30;;
74963;SDS011;63521;51.900;4.748;2022-11-15T11:04:26;2.67;;;1.48;;
74963;SDS011;63521;51.900;4.748;2022-11-15T11:06:56;2.40;;;1.45;;
74963;SDS011;63521;51.900;4.748;2022-11-15T11:09:27;2.75;;;1.40;;
74963;SDS011;63521;51.900;4.748;2022-11-15T11:11:53;3.25;;;1.40;;
74963;SDS011;63521;51.900;4.748;2022-11-15T11:14:23;2.60;;;1.58;;
74963;SDS011;63521;51.900;4.748;2022-11-15T11:22:19;6.30;;;1.35;;
74963;SDS011;63521;51.900;4.748;2022-11-15T11:33:21;2.65;;;1.40;;
74963;SDS011;63521;51.900;4.748;2022-11-15T11:39:09;2.40;;;0.90;;
74963;SDS011;63521;51.900;4.748;2022-11-15T11:48:02;1.35;;;0.88;;
74963;SDS011;63521;51.900;4.748;2022-11-15T11:50:19;1.20;;;0.93;;
74963;SDS011;63521;51.900;4.748;2022-11-15T11:58:21;1.45;;;0.95;;
74963;SDS011;63521;51.900;4.748;2022-11-15T12:00:55;0.80;;;0.80;;
74963;SDS011;63521;51.900;4.748;2022-11-15T12:03:43;1.83;;;1.23;;
74963;SDS011;63521;51.900;4.748;2022-11-15T12:06:20;1.67;;;0.85;;
74963;SDS011;63521;51.900;4.748;2022-11-15T12:08:51;5.88;;;1.42;;
74963;SDS011;63521;51.900;4.748;2022-11-15T12:14:26;2.25;;;1.00;;
74963;SDS011;63521;51.900;4.748;2022-11-15T12:16:55;2.65;;;0.93;;
74963;SDS011;63521;51.900;4.748;2022-11-15T12:19:20;2.30;;;0.90;;
74963;SDS011;63521;51.900;4.748;2022-11-15T12:22:00;2.10;;;1.08;;
74963;SDS011;63521;51.900;4.748;2022-11-15T12:27:06;2.03;;;1.63;;
74963;SDS011;63521;51.900;4.748;2022-11-15T12:29:44;3.13;;;0.80;;
74963;SDS011;63521;51.900;4.748;2022-11-15T12:32:21;1.75;;;1.13;;
74963;SDS011;63521;51.900;4.748;2022-11-15T12:34:56;0.70;;;0.70;;
74963;SDS011;63521;51.900;4.748;2022-11-15T12:45:24;2.10;;;1.00;;
74963;SDS011;63521;51.900;4.748;2022-11-15T12:58:27;2.05;;;0.93;;
74963;SDS011;63521;51.900;4.748;2022-11-15T13:00:54;3.67;;;1.00;;
74963;SDS011;63521;51.900;4.748;2022-11-15T13:03:23;3.20;;;0.90;;
74963;SDS011;63521;51.900;4.748;2022-11-15T13:05:55;3.92;;;1.17;;
74963;SDS011;63521;51.900;4.748;2022-11-15T13:08:35;1.23;;;1.13;;
74963;SDS011;63521;51.900;4.748;2022-11-15T13:19:47;1.60;;;0.73;;
74963;SDS011;63521;51.900;4.748;2022-11-15T13:28:27;0.85;;;0.75;;
74963;SDS011;63521;51.900;4.748;2022-11-15T13:30:56;1.77;;;0.80;;
74963;SDS011;63521;51.900;4.748;2022-11-15T13:33:36;2.70;;;1.10;;
74963;SDS011;63521;51.900;4.748;2022-11-15T13:36:12;1.08;;;0.80;;
74963;SDS011;63521;51.900;4.748;2022-11-15T13:38:40;2.17;;;0.93;;
74963;SDS011;63521;51.900;4.748;2022-11-15T13:43:45;1.52;;;0.90;;
74963;SDS011;63521;51.900;4.748;2022-11-15T13:46:18;2.03;;;0.80;;
74963;SDS011;63521;51.900;4.748;2022-11-15T13:48:45;1.08;;;0.85;;
74963;SDS011;63521;51.900;4.748;2022-11-15T13:51:24;1.90;;;0.70;;
74963;SDS011;63521;51.900;4.748;2022-11-15T13:54:05;1.70;;;0.80;;
74963;SDS011;63521;51.900;4.748;2022-11-15T13:56:34;1.30;;;0.65;;
74963;SDS011;63521;51.900;4.748;2022-11-15T13:59:07;1.80;;;0.50;;
74963;SDS011;63521;51.900;4.748;2022-11-15T14:01:34;1.80;;;0.60;;
74963;SDS011;63521;51.900;4.748;2022-11-15T14:03:59;0.77;;;0.60;;
74963;SDS011;63521;51.900;4.748;2022-11-15T14:06:27;1.05;;;0.80;;
74963;SDS011;63521;51.900;4.748;2022-11-15T14:09:55;2.60;;;0.80;;
74963;SDS011;63521;51.900;4.748;2022-11-15T14:11:56;1.15;;;0.90;;
74963;SDS011;63521;51.900;4.748;2022-11-15T14:14:22;0.73;;;0.63;;
74963;SDS011;63521;51.900;4.748;2022-11-15T14:16:53;2.33;;;0.68;;
74963;SDS011;63521;51.900;4.748;2022-11-15T14:24:36;0.85;;;0.60;;
74963;SDS011;63521;51.900;4.748;2022-11-15T14:29:51;2.35;;;1.20;;
74963;SDS011;63521;51.900;4.748;2022-11-15T14:32:27;0.85;;;0.68;;
74963;SDS011;63521;51.900;4.748;2022-11-15T14:34:57;1.38;;;0.70;;
74963;SDS011;63521;51.900;4.748;2022-11-15T14:37:28;1.85;;;0.80;;
74963;SDS011;63521;51.900;4.748;2022-11-15T14:39:58;2.33;;;0.90;;
74963;SDS011;63521;51.900;4.748;2022-11-15T14:42:23;2.13;;;0.90;;
74963;SDS011;63521;51.900;4.748;2022-11-15T14:44:49;1.75;;;0.70;;
74963;SDS011;63521;51.900;4.748;2022-11-15T14:47:15;1.33;;;0.55;;
74963;SDS011;63521;51.900;4.748;2022-11-15T14:49:41;3.17;;;0.90;;
74963;SDS011;63521;51.900;4.748;2022-11-15T14:54:48;1.02;;;0.60;;
74963;SDS011;63521;51.900;4.748;2022-11-15T14:57:13;2.35;;;0.75;;
74963;SDS011;63521;51.900;4.748;2022-11-15T14:59:38;1.75;;;0.80;;
74963;SDS011;63521;51.900;4.748;2022-11-15T15:02:08;0.52;;;0.52;;
74963;SDS011;63521;51.900;4.748;2022-11-15T15:04:38;1.00;;;0.80;;
74963;SDS011;63521;51.900;4.748;2022-11-15T15:07:04;2.10;;;0.73;;
74963;SDS011;63521;51.900;4.748;2022-11-15T15:09:29;2.55;;;0.80;;
74963;SDS011;63521;51.900;4.748;2022-11-15T15:11:55;1.95;;;0.77;;
74963;SDS011;63521;51.900;4.748;2022-11-15T15:14:20;1.40;;;0.90;;
74963;SDS011;63521;51.900;4.748;2022-11-15T15:20:33;1.15;;;0.75;;
74963;SDS011;63521;51.900;4.748;2022-11-15T15:22:59;0.85;;;0.70;;
74963;SDS011;63521;51.900;4.748;2022-11-15T15:25:31;2.08;;;0.82;;
74963;SDS011;63521;51.900;4.748;2022-11-15T15:27:57;1.83;;;0.80;;
74963;SDS011;63521;51.900;4.748;2022-11-15T15:30:23;1.25;;;1.10;;
74963;SDS011;63521;51.900;4.748;2022-11-15T15:32:49;1.30;;;0.80;;
74963;SDS011;63521;51.900;4.748;2022-11-15T15:35:15;0.73;;;0.50;;
74963;SDS011;63521;51.900;4.748;2022-11-15T15:37:41;1.10;;;0.90;;
74963;SDS011;63521;51.900;4.748;2022-11-15T15:40:12;1.33;;;0.73;;
74963;SDS011;63521;51.900;4.748;2022-11-15T15:42:45;1.90;;;0.90;;
74963;SDS011;63521;51.900;4.748;2022-11-15T15:45:11;1.00;;;0.90;;
74963;SDS011;63521;51.900;4.748;2022-11-15T15:47:36;1.75;;;1.05;;
74963;SDS011;63521;51.900;4.748;2022-11-15T15:50:02;0.90;;;0.80;;
74963;SDS011;63521;51.900;4.748;2022-11-15T15:52:29;2.03;;;1.00;;
74963;SDS011;63521;51.900;4.748;2022-11-15T15:54:54;0.98;;;0.88;;
74963;SDS011;63521;51.900;4.748;2022-11-15T15:57:20;2.15;;;1.00;;
74963;SDS011;63521;51.900;4.748;2022-11-15T15:59:45;1.35;;;1.13;;
74963;SDS011;63521;51.900;4.748;2022-11-15T16:02:13;1.00;;;0.90;;
74963;SDS011;63521;51.900;4.748;2022-11-15T16:04:39;0.90;;;0.85;;
74963;SDS011;63521;51.900;4.748;2022-11-15T16:07:05;0.98;;;0.82;;
74963;SDS011;63521;51.900;4.748;2022-11-15T16:09:31;1.70;;;0.90;;
74963;SDS011;63521;51.900;4.748;2022-11-15T16:12:14;0.80;;;0.70;;
74963;SDS011;63521;51.900;4.748;2022-11-15T16:14:42;1.30;;;0.70;;
74963;SDS011;63521;51.900;4.748;2022-11-15T16:17:09;2.08;;;1.00;;
74963;SDS011;63521;51.900;4.748;2022-11-15T16:19:42;1.00;;;1.00;;
74963;SDS011;63521;51.900;4.748;2022-11-15T16:22:07;0.80;;;0.80;;
74963;SDS011;63521;51.900;4.748;2022-11-15T16:24:32;0.88;;;0.70;;
74963;SDS011;63521;51.900;4.748;2022-11-15T16:26:58;1.42;;;0.80;;
74963;SDS011;63521;51.900;4.748;2022-11-15T16:29:25;1.85;;;1.08;;
74963;SDS011;63521;51.900;4.748;2022-11-15T16:31:50;2.30;;;1.00;;
74963;SDS011;63521;51.900;4.748;2022-11-15T16:34:16;2.38;;;1.00;;
74963;SDS011;63521;51.900;4.748;2022-11-15T16:36:42;1.05;;;0.90;;
74963;SDS011;63521;51.900;4.748;2022-11-15T16:39:10;1.30;;;1.17;;
74963;SDS011;63521;51.900;4.748;2022-11-15T16:41:38;3.25;;;1.10;;
74963;SDS011;63521;51.900;4.748;2022-11-15T16:44:03;2.22;;;1.27;;
74963;SDS011;63521;51.900;4.748;2022-11-15T16:46:29;2.40;;;1.10;;
74963;SDS011;63521;51.900;4.748;2022-11-15T16:48:54;3.65;;;1.50;;
74963;SDS011;63521;51.900;4.748;2022-11-15T16:51:20;1.73;;;1.17;;
74963;SDS011;63521;51.900;4.748;2022-11-15T16:53:47;2.83;;;1.40;;
74963;SDS011;63521;51.900;4.748;2022-11-15T16:56:21;1.17;;;1.00;;
74963;SDS011;63521;51.900;4.748;2022-11-15T16:58:51;1.83;;;1.20;;
74963;SDS011;63521;51.900;4.748;2022-11-15T17:01:21;2.17;;;1.20;;
74963;SDS011;63521;51.900;4.748;2022-11-15T17:03:48;2.22;;;1.17;;
74963;SDS011;63521;51.900;4.748;2022-11-15T17:06:13;1.58;;;1.23;;
74963;SDS011;63521;51.900;4.748;2022-11-15T17:20:00;1.48;;;1.20;;
74963;SDS011;63521;51.900;4.748;2022-11-15T17:22:29;1.40;;;1.20;;
74963;SDS011;63521;51.900;4.748;2022-11-15T17:24:57;2.05;;;1.23;;
74963;SDS011;63521;51.900;4.748;2022-11-15T17:27:22;1.80;;;1.10;;
74963;SDS011;63521;51.900;4.748;2022-11-15T17:29:48;4.15;;;1.08;;
74963;SDS011;63521;51.900;4.748;2022-11-15T17:32:13;2.35;;;1.00;;
74963;SDS011;63521;51.900;4.748;2022-11-15T17:34:38;2.83;;;1.42;;
74963;SDS011;63521;51.900;4.748;2022-11-15T17:37:04;2.05;;;1.40;;
74963;SDS011;63521;51.900;4.748;2022-11-15T17:39:29;1.98;;;1.30;;
74963;SDS011;63521;51.900;4.748;2022-11-15T17:41:54;1.40;;;1.10;;
74963;SDS011;63521;51.900;4.748;2022-11-15T17:44:20;1.30;;;1.10;;
74963;SDS011;63521;51.900;4.748;2022-11-15T17:46:45;1.60;;;1.15;;
74963;SDS011;63521;51.900;4.748;2022-11-15T17:49:10;2.97;;;1.40;;
74963;SDS011;63521;51.900;4.748;2022-11-15T17:51:36;2.08;;;1.38;;
74963;SDS011;63521;51.900;4.748;2022-11-15T17:54:01;2.42;;;1.40;;
74963;SDS011;63521;51.900;4.748;2022-11-15T17:56:28;2.28;;;1.40;;
74963;SDS011;63521;51.900;4.748;2022-11-15T17:58:59;1.48;;;1.25;;
74963;SDS011;63521;51.900;4.748;2022-11-15T18:01:26;4.43;;;1.23;;
74963;SDS011;63521;51.900;4.748;2022-11-15T18:03:53;1.63;;;1.08;;
74963;SDS011;63521;51.900;4.748;2022-11-15T18:06:19;2.95;;;1.35;;
74963;SDS011;63521;51.900;4.748;2022-11-15T18:08:47;3.95;;;1.65;;
74963;SDS011;63521;51.900;4.748;2022-11-15T18:13:41;1.80;;;1.30;;
74963;SDS011;63521;51.900;4.748;2022-11-15T18:16:10;2.03;;;1.23;;
74963;SDS011;63521;51.900;4.748;2022-11-15T18:18:37;2.55;;;1.40;;
74963;SDS011;63521;51.900;4.748;2022-11-15T18:21:03;1.67;;;1.30;;
74963;SDS011;63521;51.900;4.748;2022-11-15T18:23:30;1.88;;;1.33;;
74963;SDS011;63521;51.900;4.748;2022-11-15T18:25:56;2.15;;;1.50;;
74963;SDS011;63521;51.900;4.748;2022-11-15T18:28:22;1.73;;;1.30;;
74963;SDS011;63521;51.900;4.748;2022-11-15T18:30:47;1.95;;;1.33;;
74963;SDS011;63521;51.900;4.748;2022-11-15T18:33:13;2.17;;;1.40;;
74963;SDS011;63521;51.900;4.748;2022-11-15T18:35:38;2.03;;;1.20;;
74963;SDS011;63521;51.900;4.748;2022-11-15T18:38:03;2.40;;;1.33;;
74963;SDS011;63521;51.900;4.748;2022-11-15T18:40:32;2.58;;;1.48;;
74963;SDS011;63521;51.900;4.748;2022-11-15T18:42:57;2.60;;;1.50;;
74963;SDS011;63521;51.900;4.748;2022-11-15T18:45:23;2.28;;;1.45;;
74963;SDS011;63521;51.900;4.748;2022-11-15T18:47:48;1.70;;;1.40;;
74963;SDS011;63521;51.900;4.748;2022-11-15T18:50:13;1.52;;;1.27;;
74963;SDS011;63521;51.900;4.748;2022-11-15T18:52:39;2.17;;;1.42;;
74963;SDS011;63521;51.900;4.748;2022-11-15T18:55:04;2.45;;;1.50;;
74963;SDS011;63521;51.900;4.748;2022-11-15T18:57:29;1.88;;;1.30;;
74963;SDS011;63521;51.900;4.748;2022-11-15T18:59:55;2.17;;;1.50;;
74963;SDS011;63521;51.900;4.748;2022-11-15T19:02:20;1.77;;;1.48;;
74963;SDS011;63521;51.900;4.748;2022-11-15T19:04:46;2.70;;;1.90;;
74963;SDS011;63521;51.900;4.748;2022-11-15T19:07:11;2.05;;;1.60;;
74963;SDS011;63521;51.900;4.748;2022-11-15T19:09:36;2.00;;;1.38;;
74963;SDS011;63521;51.900;4.748;2022-11-15T19:12:02;2.40;;;1.52;;
74963;SDS011;63521;51.900;4.748;2022-11-15T19:14:28;2.58;;;1.60;;
74963;SDS011;63521;51.900;4.748;2022-11-15T19:16:53;3.00;;;1.50;;
74963;SDS011;63521;51.900;4.748;2022-11-15T19:19:23;3.28;;;1.95;;
74963;SDS011;63521;51.900;4.748;2022-11-15T19:21:49;2.30;;;1.50;;
74963;SDS011;63521;51.900;4.748;2022-11-15T19:24:15;1.85;;;1.40;;
74963;SDS011;63521;51.900;4.748;2022-11-15T19:26:41;2.60;;;1.63;;
74963;SDS011;63521;51.900;4.748;2022-11-15T19:29:07;3.03;;;2.05;;
74963;SDS011;63521;51.900;4.748;2022-11-15T19:31:37;2.17;;;1.70;;
74963;SDS011;63521;51.900;4.748;2022-11-15T19:34:03;2.83;;;1.60;;
74963;SDS011;63521;51.900;4.748;2022-11-15T19:36:31;2.60;;;1.77;;
74963;SDS011;63521;51.900;4.748;2022-11-15T19:38:59;2.47;;;1.73;;
74963;SDS011;63521;51.900;4.748;2022-11-15T19:41:32;2.97;;;1.90;;
74963;SDS011;63521;51.900;4.748;2022-11-15T19:43:57;2.67;;;1.83;;
74963;SDS011;63521;51.900;4.748;2022-11-15T19:46:23;2.47;;;1.50;;
74963;SDS011;63521;51.900;4.748;2022-11-15T19:48:49;3.03;;;1.60;;
74963;SDS011;63521;51.900;4.748;2022-11-15T19:51:16;3.28;;;1.77;;
74963;SDS011;63521;51.900;4.748;2022-11-15T19:53:46;2.28;;;1.42;;
74963;SDS011;63521;51.900;4.748;2022-11-15T19:56:12;2.95;;;1.90;;
74963;SDS011;63521;51.900;4.748;2022-11-15T19:58:39;2.50;;;1.55;;
74963;SDS011;63521;51.900;4.748;2022-11-15T20:01:13;2.25;;;1.60;;
74963;SDS011;63521;51.900;4.748;2022-11-15T20:03:44;3.03;;;1.83;;